createdAt,value
2016-11-09T00:00:14.419Z,0
2016-11-09T00:01:27.732Z,0
2016-11-09T00:02:40.215Z,0
2016-11-09T00:03:53.207Z,0
2016-11-09T00:05:06.616Z,0
2016-11-09T00:06:19.686Z,0
2016-11-09T00:07:32.696Z,0
2016-11-09T00:08:46.285Z,0
2016-11-09T00:09:59.928Z,0
2016-11-09T00:11:13.215Z,0
2016-11-09T00:12:26.301Z,0
2016-11-09T00:13:39.893Z,0
2016-11-09T00:14:52.463Z,0
2016-11-09T00:16:06.018Z,0
2016-11-09T00:17:19.624Z,0
2016-11-09T00:18:33.218Z,0
2016-11-09T00:19:46.355Z,0
2016-11-09T00:20:59.990Z,0
2016-11-09T00:22:12.403Z,0
2016-11-09T00:23:25.572Z,0
2016-11-09T00:24:39.139Z,0
2016-11-09T00:25:52.303Z,0
2016-11-09T00:27:05.840Z,0
2016-11-09T00:28:19.339Z,0
2016-11-09T00:29:32.924Z,0
2016-11-09T00:30:46.471Z,0
2016-11-09T00:31:59.513Z,0
2016-11-09T00:33:13.608Z,0
2016-11-09T00:34:26.644Z,0
2016-11-09T00:35:39.707Z,0
2016-11-09T00:36:53.254Z,0
2016-11-09T00:38:06.874Z,0
2016-11-09T00:39:20.414Z,0
2016-11-09T00:40:33.401Z,0
2016-11-09T00:41:46.454Z,0
2016-11-09T00:42:59.717Z,0
2016-11-09T00:44:13.387Z,0
2016-11-09T00:45:26.442Z,0
2016-11-09T00:46:39.998Z,0
2016-11-09T00:47:53.566Z,0
2016-11-09T00:49:06.641Z,0
2016-11-09T00:50:19.676Z,0
2016-11-09T00:51:33.243Z,0
2016-11-09T00:52:46.871Z,0
2016-11-09T00:54:00.450Z,0
2016-11-09T00:55:14.046Z,0
2016-11-09T00:56:27.626Z,0
2016-11-09T00:57:40.635Z,0
2016-11-09T00:59:24.545Z,0
2016-11-09T01:00:37.588Z,0
2016-11-09T01:01:50.633Z,0
2016-11-09T01:03:04.391Z,0
2016-11-09T01:04:18.018Z,0
2016-11-09T01:05:31.633Z,0
2016-11-09T01:06:45.195Z,0
2016-11-09T01:07:58.814Z,0
2016-11-09T01:09:12.140Z,0
2016-11-09T01:10:25.796Z,0
2016-11-09T01:11:39.396Z,0
2016-11-09T01:14:37.063Z,0
2016-11-09T01:15:49.248Z,0
2016-11-09T01:17:02.205Z,0
2016-11-09T01:18:15.864Z,0
2016-11-09T01:19:29.536Z,0
2016-11-09T01:20:43.126Z,0
2016-11-09T01:21:56.641Z,0
2016-11-09T01:23:10.291Z,0
2016-11-09T01:24:23.807Z,0
2016-11-09T01:25:36.862Z,0
2016-11-09T01:26:49.943Z,0
2016-11-09T01:28:03.496Z,0
2016-11-09T01:29:16.507Z,0
2016-11-09T01:30:30.092Z,0
2016-11-09T01:31:43.696Z,0
2016-11-09T01:32:57.350Z,0
2016-11-09T01:34:10.440Z,0
2016-11-09T01:35:23.537Z,0
2016-11-09T01:36:37.044Z,0
2016-11-09T01:37:50.113Z,0
2016-11-09T01:39:03.672Z,0
2016-11-09T01:40:16.959Z,0
2016-11-09T01:41:30.492Z,0
2016-11-09T01:42:44.017Z,0
2016-11-09T01:43:57.607Z,0
2016-11-09T01:45:10.620Z,0
2016-11-09T01:46:24.200Z,0
2016-11-09T01:47:37.168Z,0
2016-11-09T01:48:50.865Z,0
2016-11-09T01:50:04.699Z,0
2016-11-09T01:51:17.734Z,0
2016-11-09T01:52:31.145Z,0
2016-11-09T01:53:44.169Z,0
2016-11-09T01:54:57.622Z,0
2016-11-09T01:56:10.679Z,0
2016-11-09T01:57:24.136Z,0
2016-11-09T01:58:37.452Z,0
2016-11-09T01:59:51.052Z,0
2016-11-09T02:01:04.183Z,0
2016-11-09T02:02:17.220Z,0
2016-11-09T02:03:30.731Z,0
2016-11-09T02:04:43.702Z,0
2016-11-09T02:05:56.761Z,0
2016-11-09T02:07:10.366Z,0
2016-11-09T02:08:23.735Z,0
2016-11-09T02:09:37.396Z,0
2016-11-09T02:10:50.992Z,0
2016-11-09T02:12:04.277Z,0
2016-11-09T02:13:17.860Z,0
2016-11-09T02:14:31.861Z,0
2016-11-09T02:15:45.237Z,0
2016-11-09T02:16:58.823Z,0
2016-11-09T02:18:12.128Z,0
2016-11-09T02:19:25.441Z,0
2016-11-09T02:20:39.071Z,0
2016-11-09T02:21:51.579Z,0
2016-11-09T02:23:05.188Z,0
2016-11-09T02:24:18.257Z,0
2016-11-09T02:25:31.810Z,0
2016-11-09T02:26:44.938Z,0
2016-11-09T02:27:58.764Z,0
2016-11-09T02:29:11.795Z,0
2016-11-09T02:30:25.639Z,0
2016-11-09T02:31:38.739Z,0
2016-11-09T02:32:51.330Z,0
2016-11-09T02:34:04.404Z,0
2016-11-09T02:35:49.391Z,0
2016-11-09T02:37:02.991Z,0
2016-11-09T02:38:16.089Z,0
2016-11-09T02:39:29.696Z,0
2016-11-09T02:40:43.304Z,0
2016-11-09T02:41:56.810Z,0
2016-11-09T02:43:10.390Z,0
2016-11-09T02:44:23.463Z,0
2016-11-09T02:45:37.068Z,0
2016-11-09T02:46:50.647Z,0
2016-11-09T02:48:03.776Z,0
2016-11-09T02:49:17.412Z,0
2016-11-09T02:50:31.018Z,0
2016-11-09T02:51:44.098Z,0
2016-11-09T02:52:57.621Z,0
2016-11-09T02:54:11.236Z,0
2016-11-09T02:55:25.029Z,0
2016-11-09T02:56:37.844Z,0
2016-11-09T02:57:51.471Z,0
2016-11-09T02:59:05.072Z,0
2016-11-09T03:00:18.695Z,0
2016-11-09T03:01:32.271Z,0
2016-11-09T03:02:45.850Z,0
2016-11-09T03:03:59.375Z,0
2016-11-09T03:05:12.496Z,0
2016-11-09T03:06:26.053Z,0
2016-11-09T03:07:39.602Z,0
2016-11-09T03:08:53.132Z,0
2016-11-09T03:10:06.686Z,0
2016-11-09T03:11:19.802Z,0
2016-11-09T03:12:33.402Z,0
2016-11-09T03:13:46.780Z,0
2016-11-09T03:15:00.330Z,0
2016-11-09T03:16:13.877Z,0
2016-11-09T03:17:27.498Z,0
2016-11-09T03:18:39.966Z,0
2016-11-09T03:19:53.523Z,0
2016-11-09T03:21:07.085Z,0
2016-11-09T03:22:20.065Z,0
2016-11-09T03:23:33.629Z,0
2016-11-09T03:24:47.214Z,0
2016-11-09T03:26:00.757Z,0
2016-11-09T03:27:14.272Z,0
2016-11-09T03:28:27.912Z,0
2016-11-09T03:29:41.006Z,0
2016-11-09T03:30:54.549Z,0
2016-11-09T03:32:08.121Z,0
2016-11-09T03:33:21.240Z,0
2016-11-09T03:34:34.743Z,0
2016-11-09T03:35:48.385Z,0
2016-11-09T03:37:02.145Z,0
2016-11-09T03:38:15.753Z,0
2016-11-09T03:39:28.991Z,0
2016-11-09T03:40:42.617Z,0
2016-11-09T03:41:56.279Z,0
2016-11-09T03:43:08.739Z,0
2016-11-09T03:44:22.842Z,0
2016-11-09T03:45:35.945Z,0
2016-11-09T03:46:49.023Z,0
2016-11-09T03:48:02.627Z,0
2016-11-09T03:49:15.604Z,0
2016-11-09T03:50:28.860Z,0
2016-11-09T03:51:42.378Z,0
2016-11-09T03:52:55.401Z,0
2016-11-09T03:54:08.241Z,0
2016-11-09T03:55:21.122Z,0
2016-11-09T03:56:34.743Z,0
2016-11-09T03:57:48.382Z,0
2016-11-09T03:59:02.269Z,0
2016-11-09T04:00:15.008Z,0
2016-11-09T04:01:28.600Z,0
2016-11-09T04:02:42.164Z,0
2016-11-09T04:03:54.656Z,0
2016-11-09T04:05:08.280Z,0
2016-11-09T04:06:21.311Z,0
2016-11-09T04:07:34.621Z,0
2016-11-09T04:08:48.285Z,0
2016-11-09T04:10:01.577Z,0
2016-11-09T04:11:14.573Z,0
2016-11-09T04:12:28.165Z,0
2016-11-09T04:13:41.748Z,0
2016-11-09T04:14:55.347Z,0
2016-11-09T04:16:08.878Z,0
2016-11-09T04:17:22.170Z,0
2016-11-09T04:18:35.702Z,0
2016-11-09T04:19:49.369Z,0
2016-11-09T04:21:02.394Z,0
2016-11-09T04:22:15.930Z,0
2016-11-09T04:23:29.380Z,0
2016-11-09T04:24:42.990Z,0
2016-11-09T04:25:56.578Z,0
2016-11-09T04:27:10.212Z,0
2016-11-09T04:28:23.841Z,0
2016-11-09T04:29:36.863Z,0
2016-11-09T04:30:50.415Z,0
2016-11-09T04:32:03.715Z,0
2016-11-09T04:33:16.787Z,0
2016-11-09T04:34:30.367Z,0
2016-11-09T04:35:43.925Z,0
2016-11-09T04:36:57.555Z,0
2016-11-09T04:38:42.309Z,0
2016-11-09T04:39:56.076Z,0
2016-11-09T04:41:08.561Z,0
2016-11-09T04:42:22.093Z,0
2016-11-09T04:43:35.737Z,0
2016-11-09T04:44:49.361Z,0
2016-11-09T04:46:02.923Z,0
2016-11-09T04:47:15.926Z,0
2016-11-09T04:48:29.545Z,0
2016-11-09T04:49:42.291Z,0
2016-11-09T04:50:56.008Z,0
2016-11-09T04:52:09.013Z,0
2016-11-09T04:53:22.841Z,0
2016-11-09T04:54:36.462Z,0
2016-11-09T04:55:50.174Z,0
2016-11-09T04:57:03.415Z,0
2016-11-09T04:58:17.007Z,0
2016-11-09T04:59:29.532Z,0
2016-11-09T05:00:42.985Z,0
2016-11-09T05:01:56.523Z,0
2016-11-09T05:03:10.145Z,0
2016-11-09T05:04:23.746Z,0
2016-11-09T05:05:36.804Z,0
2016-11-09T05:06:49.970Z,0
2016-11-09T05:08:03.068Z,0
2016-11-09T05:09:15.626Z,0
2016-11-09T05:10:29.163Z,0
2016-11-09T05:11:42.257Z,0
2016-11-09T05:12:55.852Z,0
2016-11-09T05:14:09.511Z,0
2016-11-09T05:15:54.187Z,0
2016-11-09T05:17:07.235Z,0
2016-11-09T05:18:20.290Z,0
2016-11-09T05:19:33.867Z,0
2016-11-09T05:20:47.496Z,0
2016-11-09T05:22:00.849Z,0
2016-11-09T05:23:14.460Z,0
2016-11-09T05:24:26.953Z,0
2016-11-09T05:25:40.065Z,0
2016-11-09T05:26:53.613Z,0
2016-11-09T05:28:07.142Z,0
2016-11-09T05:29:20.730Z,0
2016-11-09T05:30:34.330Z,0
2016-11-09T05:31:47.340Z,0
2016-11-09T05:33:00.950Z,0
2016-11-09T05:34:13.987Z,0
2016-11-09T05:35:27.579Z,0
2016-11-09T05:36:41.183Z,0
2016-11-09T05:37:54.761Z,0
2016-11-09T05:39:08.349Z,0
2016-11-09T05:40:21.870Z,0
2016-11-09T05:41:35.413Z,0
2016-11-09T05:42:48.961Z,0
2016-11-09T05:44:01.797Z,0
2016-11-09T05:45:14.331Z,0
2016-11-09T05:46:27.408Z,0
2016-11-09T05:47:40.991Z,0
2016-11-09T05:48:53.466Z,0
2016-11-09T05:50:06.000Z,0
2016-11-09T05:51:19.958Z,0
2016-11-09T05:52:33.547Z,0
2016-11-09T05:53:47.102Z,0
2016-11-09T05:55:00.698Z,0
2016-11-09T05:56:13.681Z,0
2016-11-09T05:57:26.717Z,0
2016-11-09T05:58:40.011Z,0
2016-11-09T05:59:53.711Z,0
2016-11-09T06:01:07.279Z,0
2016-11-09T06:02:20.888Z,0
2016-11-09T06:03:34.498Z,0
2016-11-09T06:04:48.020Z,0
2016-11-09T06:06:01.020Z,0
2016-11-09T06:07:14.661Z,0
2016-11-09T06:08:27.983Z,0
2016-11-09T06:09:40.468Z,0
2016-11-09T06:10:54.062Z,0
2016-11-09T06:12:07.120Z,0
2016-11-09T06:13:19.390Z,0
2016-11-09T06:14:32.476Z,0
2016-11-09T06:15:45.531Z,0
2016-11-09T06:16:58.801Z,0
2016-11-09T06:18:11.888Z,0
2016-11-09T06:19:24.883Z,0
2016-11-09T06:20:37.921Z,0
2016-11-09T06:21:51.022Z,0
2016-11-09T06:23:04.616Z,0
2016-11-09T06:24:18.225Z,0
2016-11-09T06:25:31.302Z,0
2016-11-09T06:26:43.751Z,0
2016-11-09T06:27:57.460Z,0
2016-11-09T06:29:10.471Z,0
2016-11-09T06:30:24.042Z,0
2016-11-09T06:31:37.770Z,0
2016-11-09T06:33:21.401Z,0
2016-11-09T06:34:35.013Z,0
2016-11-09T06:35:48.699Z,0
2016-11-09T06:37:01.835Z,0
2016-11-09T06:38:14.905Z,0
2016-11-09T06:39:27.481Z,0
2016-11-09T06:40:41.043Z,0
2016-11-09T06:41:54.086Z,0
2016-11-09T06:43:06.587Z,0
2016-11-09T06:44:19.833Z,0
2016-11-09T06:45:32.843Z,0
2016-11-09T06:46:46.409Z,0
2016-11-09T06:48:00.001Z,0
2016-11-09T06:49:13.556Z,0
2016-11-09T06:50:26.156Z,0
2016-11-09T06:51:39.121Z,0
2016-11-09T06:52:53.052Z,0
2016-11-09T06:54:06.113Z,0
2016-11-09T06:55:19.945Z,0
2016-11-09T06:56:33.312Z,0
2016-11-09T06:57:46.901Z,0
2016-11-09T06:59:00.257Z,0
2016-11-09T07:00:13.831Z,0
2016-11-09T07:01:26.876Z,0
2016-11-09T07:02:40.465Z,0
2016-11-09T07:03:54.019Z,0
2016-11-09T07:05:07.501Z,0
2016-11-09T07:06:20.530Z,0
2016-11-09T07:07:33.495Z,0
2016-11-09T07:08:47.117Z,0
2016-11-09T07:10:31.861Z,0
2016-11-09T07:11:45.432Z,0
2016-11-09T07:12:59.314Z,0
2016-11-09T07:14:12.409Z,0
2016-11-09T07:15:25.491Z,0
2016-11-09T07:16:38.263Z,0
2016-11-09T07:17:51.846Z,0
2016-11-09T07:19:05.471Z,0
2016-11-09T07:20:19.099Z,0
2016-11-09T07:21:32.112Z,0
2016-11-09T07:22:45.729Z,0
2016-11-09T07:23:59.303Z,0
2016-11-09T07:25:12.305Z,0
2016-11-09T07:26:24.911Z,0
2016-11-09T07:27:37.939Z,0
2016-11-09T07:28:50.396Z,0
2016-11-09T07:30:03.945Z,0
2016-11-09T07:31:16.808Z,0
2016-11-09T07:32:30.369Z,0
2016-11-09T07:34:15.053Z,0
2016-11-09T07:35:28.658Z,0
2016-11-09T07:36:41.703Z,0
2016-11-09T07:37:55.299Z,0
2016-11-09T07:39:39.997Z,0
2016-11-09T07:40:53.570Z,0
2016-11-09T07:42:06.603Z,0
2016-11-09T07:43:19.979Z,0
2016-11-09T07:44:33.294Z,0
2016-11-09T07:45:46.868Z,0
2016-11-09T07:47:00.426Z,0
2016-11-09T07:48:14.004Z,0
2016-11-09T07:49:27.598Z,0
2016-11-09T07:50:41.235Z,0
2016-11-09T07:51:54.787Z,0
2016-11-09T07:53:07.844Z,0
2016-11-09T07:54:20.354Z,0
2016-11-09T07:55:33.917Z,0
2016-11-09T07:56:47.511Z,0
2016-11-09T07:58:01.091Z,0
2016-11-09T07:59:14.135Z,0
2016-11-09T08:00:27.208Z,0
2016-11-09T08:01:40.735Z,0
2016-11-09T08:02:53.776Z,0
2016-11-09T08:04:06.862Z,0
2016-11-09T08:05:20.436Z,0
2016-11-09T08:06:33.480Z,0
2016-11-09T08:07:47.014Z,0
2016-11-09T08:09:00.632Z,0
2016-11-09T08:10:14.182Z,0
2016-11-09T08:11:27.748Z,0
2016-11-09T08:12:41.352Z,0
2016-11-09T08:13:54.425Z,0
2016-11-09T08:15:07.971Z,0
2016-11-09T08:16:21.540Z,0
2016-11-09T08:17:35.341Z,0
2016-11-09T08:18:48.963Z,0
2016-11-09T08:20:02.535Z,0
2016-11-09T08:21:15.692Z,0
2016-11-09T08:22:29.371Z,0
2016-11-09T08:23:43.349Z,0
2016-11-09T08:24:56.915Z,0
2016-11-09T08:26:10.527Z,0
2016-11-09T08:27:24.138Z,0
2016-11-09T08:28:37.749Z,0
2016-11-09T08:29:51.309Z,0
2016-11-09T08:31:04.370Z,0
2016-11-09T08:32:17.070Z,0
2016-11-09T08:33:30.630Z,0
2016-11-09T08:34:43.629Z,0
2016-11-09T08:35:56.646Z,0
2016-11-09T08:37:09.452Z,0
2016-11-09T08:38:23.148Z,0
2016-11-09T08:39:36.729Z,0
2016-11-09T08:40:50.248Z,0
2016-11-09T08:42:03.770Z,0
2016-11-09T08:43:17.382Z,0
2016-11-09T08:44:30.469Z,0
2016-11-09T08:45:43.234Z,5
2016-11-09T08:46:56.861Z,5
2016-11-09T08:48:10.442Z,5
2016-11-09T08:49:23.508Z,5
2016-11-09T08:50:37.152Z,5
2016-11-09T08:51:50.699Z,5
2016-11-09T08:53:03.794Z,5
2016-11-09T08:54:17.357Z,5
2016-11-09T08:55:30.855Z,5
2016-11-09T08:56:43.908Z,5
2016-11-09T08:57:57.536Z,5
2016-11-09T08:59:11.085Z,5
2016-11-09T09:00:24.420Z,5
2016-11-09T09:01:37.972Z,5
2016-11-09T09:02:51.569Z,5
2016-11-09T09:04:05.490Z,5
2016-11-09T09:05:19.119Z,5
2016-11-09T09:06:31.995Z,5
2016-11-09T09:07:45.045Z,5
2016-11-09T09:08:58.594Z,5
2016-11-09T09:10:12.119Z,10
2016-11-09T09:11:25.755Z,10
2016-11-09T09:12:39.350Z,10
2016-11-09T09:13:53.124Z,10
2016-11-09T09:15:06.677Z,10
2016-11-09T09:16:20.246Z,10
2016-11-09T09:17:33.826Z,10
2016-11-09T09:18:47.335Z,10
2016-11-09T09:19:59.817Z,10
2016-11-09T09:21:12.862Z,10
2016-11-09T09:22:26.535Z,5
2016-11-09T09:23:40.055Z,5
2016-11-09T09:24:52.528Z,5
2016-11-09T09:26:06.034Z,5
2016-11-09T09:27:19.063Z,5
2016-11-09T09:28:32.695Z,5
2016-11-09T09:29:45.700Z,5
2016-11-09T09:30:59.263Z,5
2016-11-09T09:32:12.814Z,5
2016-11-09T09:33:26.403Z,10
2016-11-09T09:34:39.888Z,10
2016-11-09T09:35:53.515Z,10
2016-11-09T09:37:07.151Z,10
2016-11-09T09:38:19.967Z,10
2016-11-09T09:39:33.222Z,10
2016-11-09T09:40:46.262Z,10
2016-11-09T09:41:59.970Z,10
2016-11-09T09:43:13.597Z,10
2016-11-09T09:44:27.217Z,10
2016-11-09T09:45:40.250Z,10
2016-11-09T09:46:53.885Z,10
2016-11-09T09:48:07.389Z,10
2016-11-09T09:49:20.952Z,10
2016-11-09T09:50:34.451Z,10
2016-11-09T09:51:48.140Z,10
2016-11-09T09:53:01.186Z,10
2016-11-09T09:54:14.276Z,10
2016-11-09T09:55:27.265Z,10
2016-11-09T09:56:39.822Z,10
2016-11-09T09:57:53.387Z,10
2016-11-09T09:59:06.925Z,10
2016-11-09T10:00:20.011Z,10
2016-11-09T10:01:33.582Z,15
2016-11-09T10:02:46.373Z,15
2016-11-09T10:03:59.446Z,15
2016-11-09T10:05:12.962Z,15
2016-11-09T10:06:26.496Z,10
2016-11-09T10:08:11.190Z,10
2016-11-09T10:09:24.701Z,10
2016-11-09T10:10:38.291Z,10
2016-11-09T10:11:51.862Z,10
2016-11-09T10:13:05.487Z,10
2016-11-09T10:14:19.084Z,10
2016-11-09T10:15:32.704Z,10
2016-11-09T10:16:45.820Z,10
2016-11-09T10:17:59.490Z,10
2016-11-09T10:19:12.228Z,10
2016-11-09T10:20:25.762Z,10
2016-11-09T10:21:39.393Z,10
2016-11-09T10:22:53.107Z,10
2016-11-09T10:24:06.629Z,10
2016-11-09T10:25:19.130Z,10
2016-11-09T10:26:32.484Z,15
2016-11-09T10:27:46.060Z,15
2016-11-09T10:28:59.577Z,15
2016-11-09T10:30:12.640Z,15
2016-11-09T10:31:26.280Z,15
2016-11-09T10:32:39.595Z,15
2016-11-09T10:33:52.676Z,15
2016-11-09T10:35:06.253Z,15
2016-11-09T10:36:19.255Z,15
2016-11-09T10:37:32.438Z,15
2016-11-09T10:38:45.472Z,15
2016-11-09T10:39:58.492Z,15
2016-11-09T10:41:11.589Z,15
2016-11-09T10:42:25.109Z,15
2016-11-09T10:43:38.656Z,15
2016-11-09T10:44:52.277Z,15
2016-11-09T10:46:05.794Z,15
2016-11-09T10:47:19.369Z,15
2016-11-09T10:48:32.535Z,15
2016-11-09T10:49:46.096Z,15
2016-11-09T10:50:59.695Z,15
2016-11-09T10:52:12.407Z,15
2016-11-09T10:53:24.947Z,15
2016-11-09T10:54:38.076Z,15
2016-11-09T10:55:51.105Z,15
2016-11-09T10:57:04.388Z,15
2016-11-09T10:58:17.991Z,15
2016-11-09T10:59:31.577Z,20
2016-11-09T11:00:45.289Z,15
2016-11-09T11:01:58.830Z,20
2016-11-09T11:03:12.446Z,20
2016-11-09T11:04:26.316Z,20
2016-11-09T11:05:39.898Z,20
2016-11-09T11:06:52.589Z,20
2016-11-09T11:08:06.199Z,20
2016-11-09T11:09:19.729Z,20
2016-11-09T11:10:33.407Z,20
2016-11-09T11:11:46.960Z,20
2016-11-09T11:13:00.542Z,20
2016-11-09T11:14:14.102Z,20
2016-11-09T11:15:27.754Z,20
2016-11-09T11:16:40.806Z,20
2016-11-09T11:17:53.875Z,20
2016-11-09T11:19:14.057Z,20
2016-11-09T11:20:27.675Z,25
2016-11-09T11:21:40.218Z,25
2016-11-09T11:22:53.508Z,20
2016-11-09T11:24:07.138Z,25
2016-11-09T11:25:20.860Z,25
2016-11-09T11:26:34.513Z,25
2016-11-09T11:27:48.126Z,25
2016-11-09T11:29:01.733Z,25
2016-11-09T11:30:15.283Z,25
2016-11-09T11:31:28.959Z,25
2016-11-09T11:32:42.698Z,25
2016-11-09T11:33:55.800Z,25
2016-11-09T11:35:08.904Z,20
2016-11-09T11:36:22.595Z,25
2016-11-09T11:37:36.191Z,25
2016-11-09T11:38:50.048Z,20
2016-11-09T11:40:03.669Z,20
2016-11-09T11:41:17.375Z,20
2016-11-09T11:42:31.006Z,25
2016-11-09T11:43:44.028Z,25
2016-11-09T11:44:57.733Z,25
2016-11-09T11:46:10.338Z,25
2016-11-09T11:47:23.996Z,25
2016-11-09T11:48:37.592Z,25
2016-11-09T11:49:51.222Z,25
2016-11-09T11:51:04.881Z,25
2016-11-09T11:52:18.549Z,25
2016-11-09T11:53:32.492Z,25
2016-11-09T11:54:44.551Z,25
2016-11-09T11:55:58.226Z,25
2016-11-09T11:57:11.057Z,25
2016-11-09T11:58:24.704Z,25
2016-11-09T11:59:38.314Z,25
2016-11-09T12:00:50.874Z,30
2016-11-09T12:02:04.513Z,25
2016-11-09T12:03:17.650Z,30
2016-11-09T12:04:31.100Z,30
2016-11-09T12:05:44.744Z,30
2016-11-09T12:06:57.760Z,30
2016-11-09T12:08:11.447Z,35
2016-11-09T12:09:25.075Z,35
2016-11-09T12:10:37.870Z,35
2016-11-09T12:11:51.551Z,35
2016-11-09T12:13:04.927Z,35
2016-11-09T12:14:18.072Z,35
2016-11-09T12:15:31.649Z,35
2016-11-09T12:16:45.222Z,35
2016-11-09T12:17:58.888Z,35
2016-11-09T12:19:12.310Z,35
2016-11-09T12:20:25.508Z,35
2016-11-09T12:21:39.362Z,35
2016-11-09T12:22:52.680Z,35
2016-11-09T12:24:06.013Z,35
2016-11-09T12:25:18.608Z,35
2016-11-09T12:26:31.985Z,35
2016-11-09T12:27:45.515Z,35
2016-11-09T12:28:58.885Z,35
2016-11-09T12:30:12.500Z,30
2016-11-09T12:31:25.824Z,30
2016-11-09T12:32:39.411Z,35
2016-11-09T12:33:53.208Z,35
2016-11-09T12:35:06.828Z,35
2016-11-09T12:36:20.059Z,35
2016-11-09T12:37:33.632Z,40
2016-11-09T12:38:47.196Z,40
2016-11-09T12:40:00.745Z,40
2016-11-09T12:41:14.428Z,45
2016-11-09T12:42:27.993Z,45
2016-11-09T12:43:41.593Z,50
2016-11-09T12:44:55.193Z,50
2016-11-09T12:46:08.770Z,50
2016-11-09T12:47:22.387Z,55
2016-11-09T12:48:35.932Z,60
2016-11-09T12:49:49.176Z,65
2016-11-09T12:51:02.809Z,70
2016-11-09T12:52:16.469Z,75
2016-11-09T12:53:29.685Z,80
2016-11-09T12:54:42.547Z,85
2016-11-09T12:55:55.696Z,90
2016-11-09T12:57:09.355Z,100
2016-11-09T12:58:23.262Z,110
2016-11-09T12:59:36.311Z,120
2016-11-09T13:00:49.367Z,130
2016-11-09T13:02:03.009Z,135
2016-11-09T13:03:16.737Z,145
2016-11-09T13:04:30.425Z,140
2016-11-09T13:05:43.560Z,140
2016-11-09T13:06:56.931Z,140
2016-11-09T13:08:10.693Z,145
2016-11-09T13:09:23.898Z,150
2016-11-09T13:10:37.585Z,145
2016-11-09T13:11:51.236Z,150
2016-11-09T13:13:04.869Z,160
2016-11-09T13:14:18.516Z,145
2016-11-09T13:15:32.633Z,130
2016-11-09T13:16:46.246Z,110
2016-11-09T13:17:59.896Z,105
2016-11-09T13:19:12.970Z,105
2016-11-09T13:20:26.671Z,100
2016-11-09T13:21:40.263Z,95
2016-11-09T13:22:53.961Z,155
2016-11-09T13:24:07.573Z,160
2016-11-09T13:25:20.632Z,140
2016-11-09T13:26:34.197Z,130
2016-11-09T13:27:47.306Z,140
2016-11-09T13:29:00.876Z,180
2016-11-09T13:30:14.545Z,180
2016-11-09T13:31:28.059Z,110
2016-11-09T13:32:41.708Z,150
2016-11-09T13:33:54.306Z,185
2016-11-09T13:35:07.925Z,175
2016-11-09T13:36:21.561Z,170
2016-11-09T13:38:06.317Z,165
2016-11-09T13:39:20.103Z,160
2016-11-09T13:40:33.770Z,120
2016-11-09T13:41:46.734Z,150
2016-11-09T13:42:59.846Z,190
2016-11-09T13:44:13.458Z,160
2016-11-09T13:45:25.994Z,140
2016-11-09T13:46:39.636Z,150
2016-11-09T13:47:53.317Z,145
2016-11-09T13:49:06.204Z,160
2016-11-09T13:50:19.809Z,150
2016-11-09T13:51:32.861Z,145
2016-11-09T13:52:45.920Z,195
2016-11-09T13:53:59.886Z,150
2016-11-09T13:55:13.497Z,175
2016-11-09T13:56:27.797Z,205
2016-11-09T13:57:41.484Z,210
2016-11-09T13:58:55.065Z,210
2016-11-09T14:00:08.606Z,180
2016-11-09T14:01:21.672Z,180
2016-11-09T14:02:35.733Z,170
2016-11-09T14:03:48.806Z,205
2016-11-09T14:05:01.992Z,210
2016-11-09T14:06:15.654Z,210
2016-11-09T14:07:29.415Z,230
2016-11-09T14:08:42.428Z,245
2016-11-09T14:09:56.377Z,250
2016-11-09T14:11:09.409Z,210
2016-11-09T14:12:23.294Z,245
2016-11-09T14:13:35.875Z,190
2016-11-09T14:14:49.502Z,185
2016-11-09T14:16:02.544Z,185
2016-11-09T14:17:15.549Z,140
2016-11-09T14:18:28.594Z,135
2016-11-09T14:19:42.120Z,135
2016-11-09T14:20:56.566Z,140
2016-11-09T14:22:10.127Z,195
2016-11-09T14:23:23.669Z,190
2016-11-09T14:24:37.300Z,220
2016-11-09T14:25:50.335Z,300
2016-11-09T14:27:03.382Z,280
2016-11-09T14:28:16.131Z,290
2016-11-09T14:29:29.205Z,300
2016-11-09T14:30:42.775Z,280
2016-11-09T14:31:55.805Z,230
2016-11-09T14:33:09.445Z,320
2016-11-09T14:34:21.428Z,305
2016-11-09T14:35:35.050Z,275
2016-11-09T14:36:48.581Z,265
2016-11-09T14:38:01.672Z,230
2016-11-09T14:39:14.706Z,235
2016-11-09T14:40:28.178Z,325
2016-11-09T14:41:41.897Z,285
2016-11-09T14:42:55.406Z,275
2016-11-09T14:44:09.037Z,85
2016-11-09T14:45:22.363Z,90
2016-11-09T14:46:35.973Z,300
2016-11-09T14:47:49.502Z,290
2016-11-09T14:49:02.025Z,330
2016-11-09T14:50:15.571Z,310
2016-11-09T14:51:28.985Z,240
2016-11-09T14:52:42.141Z,210
2016-11-09T14:53:55.722Z,135
2016-11-09T14:55:09.271Z,85
2016-11-09T14:56:23.295Z,70
2016-11-09T14:57:36.889Z,60
2016-11-09T14:58:50.449Z,65
2016-11-09T15:00:03.464Z,90
2016-11-09T15:01:16.704Z,90
2016-11-09T15:02:29.729Z,120
2016-11-09T15:03:43.306Z,260
2016-11-09T15:04:56.873Z,240
2016-11-09T15:06:09.990Z,170
2016-11-09T15:07:23.305Z,175
2016-11-09T15:08:36.364Z,165
2016-11-09T15:09:50.171Z,95
2016-11-09T15:11:03.742Z,175
2016-11-09T15:12:16.262Z,195
2016-11-09T15:13:29.079Z,135
2016-11-09T15:14:41.663Z,85
2016-11-09T15:15:55.345Z,75
2016-11-09T15:17:08.956Z,70
2016-11-09T15:18:22.589Z,75
2016-11-09T15:19:35.613Z,70
2016-11-09T15:20:48.713Z,55
2016-11-09T15:22:02.628Z,50
2016-11-09T15:23:16.275Z,60
2016-11-09T15:24:29.935Z,85
2016-11-09T15:25:42.987Z,135
2016-11-09T15:26:56.623Z,100
2016-11-09T15:28:10.352Z,220
2016-11-09T15:29:23.925Z,365
2016-11-09T15:30:37.510Z,375
2016-11-09T15:31:50.571Z,380
2016-11-09T15:33:03.714Z,365
2016-11-09T15:34:17.320Z,360
2016-11-09T15:35:30.898Z,350
2016-11-09T15:36:44.478Z,345
2016-11-09T15:37:58.075Z,115
2016-11-09T15:39:11.687Z,80
2016-11-09T15:40:25.308Z,70
2016-11-09T15:41:39.131Z,60
2016-11-09T15:42:52.723Z,70
2016-11-09T15:44:06.345Z,70
2016-11-09T15:45:20.170Z,75
2016-11-09T15:46:33.781Z,105
2016-11-09T15:47:47.284Z,160
2016-11-09T15:49:00.866Z,330
2016-11-09T15:50:14.404Z,385
2016-11-09T15:51:27.414Z,325
2016-11-09T15:52:40.491Z,120
2016-11-09T15:53:54.170Z,105
2016-11-09T15:55:07.259Z,75
2016-11-09T15:56:20.850Z,80
2016-11-09T15:57:34.442Z,105
2016-11-09T15:58:48.025Z,160
2016-11-09T16:00:01.392Z,235
2016-11-09T16:01:46.117Z,80
2016-11-09T16:02:59.714Z,75
2016-11-09T16:04:13.341Z,105
2016-11-09T16:05:26.674Z,310
2016-11-09T16:06:40.227Z,350
2016-11-09T16:07:53.740Z,325
2016-11-09T16:09:07.321Z,260
2016-11-09T16:10:20.494Z,250
2016-11-09T16:11:34.125Z,190
2016-11-09T16:12:47.164Z,275
2016-11-09T16:14:00.755Z,135
2016-11-09T16:15:14.453Z,120
2016-11-09T16:16:27.548Z,110
2016-11-09T16:17:41.131Z,120
2016-11-09T16:18:53.867Z,165
2016-11-09T16:20:07.464Z,245
2016-11-09T16:21:21.061Z,265
2016-11-09T16:22:34.743Z,260
2016-11-09T16:23:48.367Z,285
2016-11-09T16:25:01.957Z,285
2016-11-09T16:26:15.668Z,310
2016-11-09T16:27:29.559Z,360
2016-11-09T16:28:42.607Z,320
2016-11-09T16:29:56.452Z,305
2016-11-09T16:31:09.735Z,175
2016-11-09T16:32:23.347Z,85
2016-11-09T16:33:36.413Z,75
2016-11-09T16:34:49.558Z,80
2016-11-09T16:36:03.209Z,70
2016-11-09T16:37:16.780Z,60
2016-11-09T16:38:30.105Z,60
2016-11-09T16:39:43.717Z,65
2016-11-09T16:40:57.296Z,65
2016-11-09T16:42:09.825Z,70
2016-11-09T16:43:23.414Z,65
2016-11-09T16:44:36.621Z,70
2016-11-09T16:45:50.276Z,80
2016-11-09T16:47:03.856Z,100
2016-11-09T16:48:17.144Z,115
2016-11-09T16:49:30.750Z,90
2016-11-09T16:50:43.775Z,100
2016-11-09T16:51:56.866Z,110
2016-11-09T16:53:09.958Z,75
2016-11-09T16:54:23.595Z,65
2016-11-09T16:55:37.171Z,65
2016-11-09T16:56:50.296Z,85
2016-11-09T16:58:03.936Z,295
2016-11-09T16:59:17.528Z,290
2016-11-09T17:00:30.590Z,270
2016-11-09T17:01:43.647Z,260
2016-11-09T17:02:56.438Z,285
2016-11-09T17:04:09.471Z,245
2016-11-09T17:05:53.614Z,260
2016-11-09T17:07:07.181Z,250
2016-11-09T17:08:20.842Z,100
2016-11-09T17:09:34.389Z,180
2016-11-09T17:10:47.952Z,205
2016-11-09T17:12:01.516Z,170
2016-11-09T17:13:15.094Z,265
2016-11-09T17:14:28.661Z,275
2016-11-09T17:15:42.241Z,235
2016-11-09T17:16:55.380Z,70
2016-11-09T17:18:07.986Z,80
2016-11-09T17:19:21.014Z,150
2016-11-09T17:20:34.075Z,65
2016-11-09T17:21:47.036Z,50
2016-11-09T17:23:00.135Z,45
2016-11-09T17:24:13.238Z,40
2016-11-09T17:25:26.574Z,40
2016-11-09T17:26:40.182Z,45
2016-11-09T17:27:53.756Z,50
2016-11-09T17:29:07.048Z,55
2016-11-09T17:30:20.294Z,160
2016-11-09T17:31:33.920Z,55
2016-11-09T17:32:46.725Z,50
2016-11-09T17:33:59.771Z,45
2016-11-09T17:35:13.360Z,45
2016-11-09T17:36:26.683Z,45
2016-11-09T17:37:40.187Z,60
2016-11-09T17:38:53.441Z,85
2016-11-09T17:40:07.110Z,85
2016-11-09T17:41:20.231Z,65
2016-11-09T17:42:33.811Z,60
2016-11-09T17:43:47.347Z,50
2016-11-09T17:45:01.007Z,45
2016-11-09T17:46:14.573Z,45